createdAt,value
2019-06-26T00:00:30.337Z,97113.91
2019-06-26T00:03:02.178Z,97110.06
2019-06-26T00:05:34.278Z,97113.56
2019-06-26T00:08:06.129Z,97111.33
2019-06-26T00:10:37.877Z,97113.23
2019-06-26T00:13:24.829Z,97106.99
2019-06-26T00:15:43.119Z,97111.05
2019-06-26T00:18:14.901Z,97107.17
2019-06-26T00:20:46.640Z,97112.31
2019-06-26T00:23:18.415Z,97109.84
2019-06-26T00:25:50.180Z,97110.27
2019-06-26T00:28:21.951Z,97111.73
2019-06-26T00:30:53.721Z,97114.95
2019-06-26T00:33:25.490Z,97118.28
2019-06-26T00:35:58.389Z,97114.50
2019-06-26T00:38:30.163Z,97113.81
2019-06-26T00:41:01.926Z,97115.88
2019-06-26T00:43:42.232Z,97117.83
2019-06-26T00:46:07.163Z,97116.66
2019-06-26T00:48:38.960Z,97117.39
2019-06-26T00:51:11.098Z,97116.84
2019-06-26T00:53:42.872Z,97115.61
2019-06-26T00:56:14.637Z,97114.48
2019-06-26T00:58:46.402Z,97111.83
2019-06-26T01:01:18.171Z,97115.43
2019-06-26T01:03:51.579Z,97116.28
2019-06-26T01:06:24.984Z,97114.88
2019-06-26T01:08:56.753Z,97115.41
2019-06-26T01:11:28.689Z,97113.48
2019-06-26T01:14:00.475Z,97120.47
2019-06-26T01:16:32.244Z,97117.48
2019-06-26T01:19:04.021Z,97121.28
2019-06-26T01:21:35.788Z,97125.30
2019-06-26T01:24:07.565Z,97120.78
2019-06-26T01:26:39.956Z,97121.16
2019-06-26T01:29:12.002Z,97119.75
2019-06-26T01:31:43.801Z,97116.66
2019-06-26T01:34:15.553Z,97120.87
2019-06-26T01:36:47.324Z,97117.38
2019-06-26T01:39:19.113Z,97112.55
2019-06-26T01:41:50.894Z,97112.35
2019-06-26T01:44:22.647Z,97114.77
2019-06-26T01:46:54.410Z,97114.27
2019-06-26T01:49:26.187Z,97121.22
2019-06-26T01:51:57.987Z,97113.02
2019-06-26T01:54:29.734Z,97115.89
2019-06-26T01:57:01.511Z,97113.66
2019-06-26T01:59:33.314Z,97124.34
2019-06-26T02:02:05.149Z,97116.34
2019-06-26T02:04:36.994Z,97123.14
2019-06-26T02:07:08.762Z,97120.87
2019-06-26T02:09:41.012Z,97116.34
2019-06-26T02:12:12.794Z,97116.74
2019-06-26T02:14:44.749Z,97116.86
2019-06-26T02:17:16.688Z,97124.56
2019-06-26T02:19:48.467Z,97127.55
2019-06-26T02:22:20.235Z,97134.42
2019-06-26T02:24:52.016Z,97128.27
2019-06-26T02:27:24.053Z,97133.83
2019-06-26T02:29:55.839Z,97134.11
2019-06-26T02:32:27.608Z,97132.38
2019-06-26T02:34:59.424Z,97128.89
2019-06-26T02:37:32.791Z,97135.77
2019-06-26T02:40:06.715Z,97134.03
2019-06-26T02:42:38.659Z,97140.20
2019-06-26T02:45:11.721Z,97140.80
2019-06-26T02:47:43.501Z,97134.12
2019-06-26T02:50:16.023Z,97141.69
2019-06-26T02:52:47.797Z,97142.39
2019-06-26T02:55:19.581Z,97149.97
2019-06-26T02:57:51.648Z,97143.28
2019-06-26T03:00:23.934Z,97148.09
2019-06-26T03:02:55.688Z,97142.45
2019-06-26T03:05:27.474Z,97141.09
2019-06-26T03:07:59.240Z,97139.25
2019-06-26T03:10:31.025Z,97141.72
2019-06-26T03:13:02.796Z,97142.84
2019-06-26T03:15:34.579Z,97145.08
2019-06-26T03:18:06.419Z,97137.27
2019-06-26T03:20:45.623Z,97141.91
2019-06-26T03:23:17.390Z,97143.86
2019-06-26T03:25:49.173Z,97142.92
2019-06-26T03:28:20.940Z,97142.84
2019-06-26T03:30:52.727Z,97140.59
2019-06-26T03:33:24.493Z,97135.45
2019-06-26T03:35:57.910Z,97137.61
2019-06-26T03:38:29.656Z,97141.09
2019-06-26T03:41:01.450Z,97134.11
2019-06-26T03:43:35.422Z,97137.20
2019-06-26T03:46:07.719Z,97132.47
2019-06-26T03:48:39.595Z,97129.52
2019-06-26T03:51:13.823Z,97131.62
2019-06-26T03:53:44.851Z,97126.09
2019-06-26T03:56:16.627Z,97126.02
2019-06-26T03:58:48.408Z,97131.55
2019-06-26T04:01:20.246Z,97136.18
2019-06-26T04:03:52.038Z,97134.45
2019-06-26T04:06:24.183Z,97139.98
2019-06-26T04:08:55.950Z,97137.02
2019-06-26T04:11:27.731Z,97137.45
2019-06-26T04:13:59.772Z,97143.00
2019-06-26T04:16:31.541Z,97138.18
2019-06-26T04:19:03.341Z,97139.00
2019-06-26T04:21:35.162Z,97141.48
2019-06-26T04:24:06.929Z,97139.17
2019-06-26T04:26:38.710Z,97146.56
2019-06-26T04:29:11.024Z,97148.80
2019-06-26T04:31:42.802Z,97148.28
2019-06-26T04:34:14.590Z,97147.89
2019-06-26T04:36:46.353Z,97152.28
2019-06-26T04:39:18.119Z,97158.55
2019-06-26T04:41:49.915Z,97154.23
2019-06-26T04:44:21.666Z,97156.45
2019-06-26T04:46:53.454Z,97161.80
2019-06-26T04:49:25.217Z,97159.44
2019-06-26T04:51:56.995Z,97159.53
2019-06-26T04:54:28.839Z,97168.77
2019-06-26T04:57:00.693Z,97167.73
2019-06-26T04:59:32.468Z,97170.84
2019-06-26T05:02:04.238Z,97166.00
2019-06-26T05:04:36.028Z,97173.56
2019-06-26T05:07:07.797Z,97175.37
2019-06-26T05:09:40.643Z,97170.69
2019-06-26T05:12:12.440Z,97177.45
2019-06-26T05:14:44.319Z,97188.09
2019-06-26T05:17:16.274Z,97178.45
2019-06-26T05:19:48.053Z,97179.81
2019-06-26T05:22:20.614Z,97182.23
2019-06-26T05:24:52.697Z,97181.98
2019-06-26T05:27:24.483Z,97182.01
2019-06-26T05:29:56.265Z,97177.52
2019-06-26T05:32:28.142Z,97179.70
2019-06-26T05:35:00.381Z,97178.09
2019-06-26T05:37:32.363Z,97185.71
2019-06-26T05:40:09.162Z,97186.39
2019-06-26T05:42:40.964Z,97191.54
2019-06-26T05:45:13.841Z,97195.65
2019-06-26T05:47:45.633Z,97198.05
2019-06-26T05:50:18.114Z,97201.79
2019-06-26T05:52:49.896Z,97203.12
2019-06-26T05:55:22.008Z,97205.14
2019-06-26T05:57:54.179Z,97199.92
2019-06-26T06:00:26.034Z,97201.44
2019-06-26T06:02:58.653Z,97196.12
2019-06-26T06:05:30.571Z,97204.83
2019-06-26T06:08:02.386Z,97205.47
2019-06-26T06:10:34.123Z,97204.45
2019-06-26T06:13:05.968Z,97209.14
2019-06-26T06:15:37.748Z,97209.69
2019-06-26T06:18:10.609Z,97208.55
2019-06-26T06:20:42.459Z,97208.12
2019-06-26T06:23:14.230Z,97215.18
2019-06-26T06:25:46.010Z,97219.02
2019-06-26T06:28:17.779Z,97215.00
2019-06-26T06:30:49.823Z,97213.97
2019-06-26T06:33:21.584Z,97218.34
2019-06-26T06:35:53.365Z,97215.69
2019-06-26T06:38:25.131Z,97221.23
2019-06-26T06:40:56.908Z,97224.20
2019-06-26T06:43:28.939Z,97217.77
2019-06-26T06:46:00.705Z,97220.79
2019-06-26T06:48:32.463Z,97220.75
2019-06-26T06:51:04.875Z,97222.88
2019-06-26T06:53:36.647Z,97223.38
2019-06-26T06:56:08.407Z,97227.90
2019-06-26T06:58:40.171Z,97226.22
2019-06-26T07:01:11.943Z,97231.28
2019-06-26T07:03:43.707Z,97233.13
2019-06-26T07:06:15.492Z,97235.47
2019-06-26T07:08:47.258Z,97233.48
2019-06-26T07:11:19.030Z,97238.88
2019-06-26T07:13:50.796Z,97236.39
2019-06-26T07:16:22.846Z,97236.53
2019-06-26T07:18:54.606Z,97235.94
2019-06-26T07:21:26.645Z,97233.66
2019-06-26T07:23:58.404Z,97234.57
2019-06-26T07:26:30.190Z,97241.81
2019-06-26T07:29:02.056Z,97240.30
2019-06-26T07:31:33.846Z,97233.39
2019-06-26T07:34:05.675Z,97236.45
2019-06-26T07:36:37.445Z,97246.88
2019-06-26T07:39:09.208Z,97243.75
2019-06-26T07:41:40.978Z,97240.57
2019-06-26T07:44:12.735Z,97241.44
2019-06-26T07:46:44.506Z,97243.41
2019-06-26T07:49:16.265Z,97244.02
2019-06-26T07:51:48.044Z,97245.16
2019-06-26T07:54:19.809Z,97246.03
2019-06-26T07:56:52.291Z,97243.92
2019-06-26T07:59:25.031Z,97245.61
2019-06-26T08:01:56.799Z,97245.11
2019-06-26T08:04:28.558Z,97251.36
2019-06-26T08:07:00.335Z,97251.16
2019-06-26T08:09:32.100Z,97252.55
2019-06-26T08:12:03.914Z,97248.50
2019-06-26T08:14:35.671Z,97253.92
2019-06-26T08:17:07.728Z,97246.86
2019-06-26T08:19:39.504Z,97241.20
2019-06-26T08:22:11.391Z,97252.06
2019-06-26T08:24:43.153Z,97249.64
2019-06-26T08:27:14.919Z,97250.70
2019-06-26T08:29:46.682Z,97256.67
2019-06-26T08:32:18.570Z,97251.21
2019-06-26T08:34:50.355Z,97255.56
2019-06-26T08:37:22.153Z,97258.82
2019-06-26T08:39:53.928Z,97261.25
2019-06-26T08:42:25.681Z,97264.53
2019-06-26T08:44:57.447Z,97258.22
2019-06-26T08:47:29.219Z,97264.67
2019-06-26T08:50:00.990Z,97260.55
2019-06-26T08:52:32.787Z,97265.92
2019-06-26T08:55:09.080Z,97262.66
2019-06-26T08:57:40.882Z,97264.32
2019-06-26T09:00:14.157Z,97267.59
2019-06-26T09:02:45.924Z,97266.73
2019-06-26T09:05:17.915Z,97271.29
2019-06-26T09:07:50.296Z,97261.91
2019-06-26T09:10:22.255Z,97255.82
2019-06-26T09:12:54.039Z,97255.51
2019-06-26T09:15:26.190Z,97262.13
2019-06-26T09:17:57.985Z,97254.56
2019-06-26T09:20:41.041Z,97252.66
2019-06-26T09:23:12.881Z,97256.95
2019-06-26T09:25:44.646Z,97256.37
2019-06-26T09:28:16.488Z,97258.27
2019-06-26T09:30:48.240Z,97259.81
2019-06-26T09:33:20.030Z,97263.02
2019-06-26T09:35:51.794Z,97258.61
2019-06-26T09:38:23.569Z,97259.32
2019-06-26T09:40:55.328Z,97258.63
2019-06-26T09:43:27.098Z,97265.80
2019-06-26T09:45:58.902Z,97266.20
2019-06-26T09:48:30.695Z,97264.17
2019-06-26T09:51:02.458Z,97269.81
2019-06-26T09:53:46.589Z,97269.65
2019-06-26T09:56:09.052Z,97267.75
2019-06-26T09:58:40.822Z,97261.68
2019-06-26T10:01:12.596Z,97265.88
2019-06-26T10:03:45.402Z,97267.08
2019-06-26T10:06:17.343Z,97268.00
2019-06-26T10:08:49.445Z,97265.45
2019-06-26T10:11:21.239Z,97260.70
2019-06-26T10:13:53.016Z,97264.14
2019-06-26T10:16:24.795Z,97262.69
2019-06-26T10:19:09.495Z,97258.87
2019-06-26T10:21:30.049Z,97258.26
2019-06-26T10:24:01.827Z,97255.50
2019-06-26T10:26:33.590Z,97256.09
2019-06-26T10:29:05.430Z,97257.98
2019-06-26T10:31:37.241Z,97254.27
2019-06-26T10:34:10.293Z,97254.34
2019-06-26T10:36:42.229Z,97260.09
2019-06-26T10:39:14.000Z,97255.63
2019-06-26T10:41:45.767Z,97253.16
2019-06-26T10:44:17.542Z,97254.45
2019-06-26T10:46:49.315Z,97254.27
2019-06-26T10:49:27.099Z,97254.95
2019-06-26T10:51:54.554Z,97254.26
2019-06-26T10:54:26.384Z,97251.03
2019-06-26T10:56:58.142Z,97253.77
2019-06-26T10:59:29.931Z,97250.59
2019-06-26T11:02:01.675Z,97249.63
2019-06-26T11:04:33.454Z,97241.32
2019-06-26T11:07:05.383Z,97242.84
2019-06-26T11:09:37.183Z,97237.98
2019-06-26T11:12:09.189Z,97240.28
2019-06-26T11:14:41.940Z,97236.19
2019-06-26T11:17:13.703Z,97241.90
2019-06-26T11:19:45.468Z,97235.23
2019-06-26T11:22:17.241Z,97238.74
2019-06-26T11:24:49.048Z,97237.53
2019-06-26T11:27:20.869Z,97238.92
2019-06-26T11:29:52.637Z,97230.12
2019-06-26T11:32:24.485Z,97232.33
2019-06-26T11:34:56.276Z,97228.95
2019-06-26T11:37:28.015Z,97229.89
2019-06-26T11:39:59.788Z,97233.00
2019-06-26T11:42:32.850Z,97228.38
2019-06-26T11:45:09.305Z,97236.58
2019-06-26T11:47:45.585Z,97232.90
2019-06-26T11:50:19.229Z,97237.41
2019-06-26T11:52:50.985Z,97235.52
2019-06-26T11:55:22.972Z,97232.30
2019-06-26T11:57:54.745Z,97230.32
2019-06-26T12:00:27.223Z,97235.68
2019-06-26T12:02:59.025Z,97226.77
2019-06-26T12:05:30.872Z,97229.41
2019-06-26T12:08:02.633Z,97225.73
2019-06-26T12:10:34.404Z,97223.06
2019-06-26T12:13:06.241Z,97223.91
2019-06-26T12:15:43.807Z,97219.08
2019-06-26T12:18:15.568Z,97223.07
2019-06-26T12:20:47.355Z,97216.22
2019-06-26T12:23:19.140Z,97217.52
2019-06-26T12:25:51.196Z,97213.88
2019-06-26T12:28:22.964Z,97209.52
2019-06-26T12:30:54.737Z,97218.97
2019-06-26T12:33:26.510Z,97219.58
2019-06-26T12:35:58.287Z,97217.38
2019-06-26T12:38:30.045Z,97215.48
2019-06-26T12:41:01.848Z,97212.13
2019-06-26T12:43:33.613Z,97210.86
2019-06-26T12:46:05.618Z,97209.91
2019-06-26T12:48:37.447Z,97200.71
2019-06-26T12:51:09.274Z,97207.31
2019-06-26T12:53:40.982Z,97203.39
2019-06-26T12:56:12.748Z,97201.05
2019-06-26T12:58:44.507Z,97194.39
2019-06-26T13:01:16.324Z,97193.69
2019-06-26T13:03:49.091Z,97194.72
2019-06-26T13:06:20.873Z,97191.59
2019-06-26T13:08:52.635Z,97190.88
2019-06-26T13:11:24.406Z,97194.99
2019-06-26T13:14:02.595Z,97196.93
2019-06-26T13:16:29.663Z,97186.22
2019-06-26T13:19:01.435Z,97181.96
2019-06-26T13:21:33.297Z,97183.42
2019-06-26T13:24:05.063Z,97180.48
2019-06-26T13:26:36.828Z,97184.02
2019-06-26T13:29:09.944Z,97174.68
2019-06-26T13:31:42.037Z,97175.28
2019-06-26T13:34:13.799Z,97173.77
2019-06-26T13:36:45.580Z,97171.80
2019-06-26T13:39:17.343Z,97166.08
2019-06-26T13:41:49.124Z,97168.80
2019-06-26T13:44:20.894Z,97170.07
2019-06-26T13:46:52.835Z,97164.53
2019-06-26T13:49:24.599Z,97168.94
2019-06-26T13:51:56.371Z,97171.13
2019-06-26T13:54:28.486Z,97167.39
2019-06-26T13:57:00.254Z,97158.41
2019-06-26T13:59:32.019Z,97165.55
2019-06-26T14:02:03.813Z,97163.91
2019-06-26T14:04:35.560Z,97158.46
2019-06-26T14:07:08.681Z,97155.23
2019-06-26T14:09:40.777Z,97157.72
2019-06-26T14:12:12.548Z,97149.13
2019-06-26T14:14:56.734Z,97155.19
2019-06-26T14:17:17.782Z,97148.63
2019-06-26T14:19:49.562Z,97154.83
2019-06-26T14:22:21.338Z,97149.15
2019-06-26T14:24:54.251Z,97152.44
2019-06-26T14:27:26.150Z,97152.91
2019-06-26T14:29:57.939Z,97156.36
2019-06-26T14:32:29.723Z,97151.95
2019-06-26T14:35:01.458Z,97153.24
2019-06-26T14:37:33.221Z,97148.17
2019-06-26T14:40:07.802Z,97152.47
2019-06-26T14:42:39.570Z,97151.73
2019-06-26T14:45:13.010Z,97151.98
2019-06-26T14:47:44.786Z,97149.13
2019-06-26T14:50:17.485Z,97151.59
2019-06-26T14:52:49.530Z,97145.41
2019-06-26T14:55:21.303Z,97142.91
2019-06-26T14:57:53.106Z,97144.13
2019-06-26T15:00:25.648Z,97149.60
2019-06-26T15:02:57.400Z,97139.64
2019-06-26T15:05:29.177Z,97140.52
2019-06-26T15:08:00.949Z,97137.79
2019-06-26T15:10:32.710Z,97141.84
2019-06-26T15:13:04.492Z,97133.12
2019-06-26T15:15:37.228Z,97132.36
2019-06-26T15:18:10.645Z,97127.64
2019-06-26T15:20:42.480Z,97126.58
2019-06-26T15:23:14.259Z,97130.20
2019-06-26T15:25:46.023Z,97125.72
2019-06-26T15:28:17.797Z,97124.84
2019-06-26T15:30:49.561Z,97120.50
2019-06-26T15:33:22.307Z,97120.23
2019-06-26T15:35:54.393Z,97112.41
2019-06-26T15:38:26.176Z,97109.84
2019-06-26T15:40:58.996Z,97111.77
2019-06-26T15:43:30.787Z,97107.87
2019-06-26T15:46:02.617Z,97105.64
2019-06-26T15:48:34.403Z,97103.77
2019-06-26T15:51:06.174Z,97104.52
2019-06-26T15:53:37.969Z,97107.61
2019-06-26T15:56:10.790Z,97110.47
2019-06-26T15:58:42.580Z,97114.34
2019-06-26T16:01:14.331Z,97105.45
2019-06-26T16:03:46.110Z,97105.33
2019-06-26T16:06:17.871Z,97110.50
2019-06-26T16:08:49.649Z,97109.11
2019-06-26T16:11:21.415Z,97111.05
2019-06-26T16:13:53.192Z,97105.46
2019-06-26T16:16:25.249Z,97106.64
2019-06-26T16:18:58.668Z,97105.88
2019-06-26T16:21:30.822Z,97105.06
2019-06-26T16:24:03.592Z,97104.25
2019-06-26T16:26:37.168Z,97112.48
2019-06-26T16:29:09.039Z,97108.58
2019-06-26T16:31:40.802Z,97108.94
2019-06-26T16:34:12.588Z,97099.30
2019-06-26T16:36:44.355Z,97103.63
2019-06-26T16:39:16.145Z,97105.29
2019-06-26T16:41:49.213Z,97107.24
2019-06-26T16:44:22.016Z,97103.51
2019-06-26T16:46:53.788Z,97097.86
2019-06-26T16:49:25.556Z,97103.33
2019-06-26T16:51:57.392Z,97107.56
2019-06-26T16:54:29.175Z,97104.25
2019-06-26T16:57:01.063Z,97102.30
2019-06-26T16:59:32.929Z,97098.80
2019-06-26T17:02:07.026Z,97101.61
2019-06-26T17:04:38.175Z,97094.05
2019-06-26T17:07:10.674Z,97095.23
2019-06-26T17:09:44.433Z,97099.19
2019-06-26T17:12:15.933Z,97095.50
2019-06-26T17:14:47.721Z,97097.05
2019-06-26T17:17:19.479Z,97089.80
2019-06-26T17:19:51.254Z,97092.12
2019-06-26T17:22:23.217Z,97095.34
2019-06-26T17:24:55.008Z,97098.34
2019-06-26T17:27:26.771Z,97099.58
2019-06-26T17:29:59.329Z,97107.52
2019-06-26T17:32:31.298Z,97100.00
2019-06-26T17:35:04.971Z,97104.91
2019-06-26T17:37:36.915Z,97104.78
2019-06-26T17:40:09.730Z,97101.66
2019-06-26T17:42:41.565Z,97100.48
2019-06-26T17:45:13.682Z,97102.08
2019-06-26T17:47:45.520Z,97091.76
2019-06-26T17:50:18.303Z,97097.22
2019-06-26T17:52:50.138Z,97087.03
2019-06-26T17:55:22.187Z,97087.16
2019-06-26T17:57:53.942Z,97088.48
2019-06-26T18:00:37.350Z,97093.89
2019-06-26T18:03:09.260Z,97095.13
2019-06-26T18:05:42.449Z,97092.67
2019-06-26T18:08:14.556Z,97099.02
2019-06-26T18:10:46.401Z,97091.13
2019-06-26T18:13:18.174Z,97089.69
2019-06-26T18:15:57.353Z,97087.38
2019-06-26T18:18:29.319Z,97091.20
2019-06-26T18:21:01.345Z,97091.92
2019-06-26T18:23:37.609Z,97095.20
2019-06-26T18:26:12.924Z,97090.88
2019-06-26T18:28:40.212Z,97095.94
2019-06-26T18:31:12.066Z,97095.88
2019-06-26T18:33:44.444Z,97089.84
2019-06-26T18:36:16.430Z,97091.43
2019-06-26T18:38:48.230Z,97090.97
2019-06-26T18:41:20.082Z,97088.53
2019-06-26T18:43:51.940Z,97089.91
2019-06-26T18:46:24.978Z,97095.61
2019-06-26T18:48:56.908Z,97093.41
2019-06-26T18:51:28.740Z,97096.05
2019-06-26T18:54:01.217Z,97095.77
2019-06-26T18:56:33.403Z,97098.97
2019-06-26T18:59:05.699Z,97092.09
2019-06-26T19:01:56.467Z,97097.39
2019-06-26T19:04:47.423Z,97096.95
2019-06-26T19:07:19.317Z,97091.64
2019-06-26T19:09:51.090Z,97097.95
2019-06-26T19:12:24.616Z,97102.40
2019-06-26T19:14:56.498Z,97100.55
2019-06-26T19:17:28.399Z,97098.93
2019-06-26T19:20:00.236Z,97105.72
2019-06-26T19:22:32.095Z,97104.95
2019-06-26T19:25:07.181Z,97103.58
2019-06-26T19:27:57.843Z,97104.37
2019-06-26T19:30:29.688Z,97107.08
2019-06-26T19:33:01.519Z,97103.81
2019-06-26T19:35:33.448Z,97113.28
2019-06-26T19:38:06.926Z,97122.48
2019-06-26T19:40:39.069Z,97124.29
2019-06-26T19:43:11.593Z,97127.75
2019-06-26T19:45:43.501Z,97125.24
2019-06-26T19:48:15.425Z,97124.88
2019-06-26T19:50:49.582Z,97135.97
2019-06-26T19:53:21.531Z,97133.44
2019-06-26T19:55:53.542Z,97135.84
2019-06-26T19:58:25.327Z,97131.78
2019-06-26T20:00:56.539Z,97136.38
2019-06-26T20:03:28.320Z,97137.67
2019-06-26T20:06:00.112Z,97135.23
2019-06-26T20:08:32.160Z,97138.69
2019-06-26T20:11:05.625Z,97132.66
2019-06-26T20:13:37.412Z,97135.02
2019-06-26T20:16:09.753Z,97133.70
2019-06-26T20:18:42.512Z,97137.64
2019-06-26T20:21:14.282Z,97142.13
2019-06-26T20:23:46.339Z,97139.82
2019-06-26T20:26:18.187Z,97145.34
2019-06-26T20:28:49.970Z,97142.55
2019-06-26T20:31:21.950Z,97148.16
2019-06-26T20:33:53.746Z,97148.93
2019-06-26T20:36:25.491Z,97148.00
2019-06-26T20:38:57.606Z,97162.99
2019-06-26T20:41:29.379Z,97157.08
2019-06-26T20:44:01.185Z,97158.24
2019-06-26T20:46:33.006Z,97156.23
2019-06-26T20:49:04.785Z,97157.16
2019-06-26T20:51:36.634Z,97156.99
2019-06-26T20:54:08.579Z,97155.00
2019-06-26T20:56:40.355Z,97159.45
2019-06-26T20:59:12.126Z,97163.42
2019-06-26T21:01:43.963Z,97165.44
2019-06-26T21:04:15.783Z,97163.58
2019-06-26T21:06:47.545Z,97162.68
2019-06-26T21:09:19.328Z,97165.80
2019-06-26T21:11:51.537Z,97160.27
2019-06-26T21:14:23.474Z,97168.16
2019-06-26T21:16:55.303Z,97172.55
2019-06-26T21:19:27.217Z,97162.66
2019-06-26T21:21:59.119Z,97168.52
2019-06-26T21:24:31.382Z,97170.73
2019-06-26T21:27:03.281Z,97169.01
2019-06-26T21:29:36.162Z,97166.30
2019-06-26T21:32:08.074Z,97172.41
2019-06-26T21:34:39.907Z,97166.88
2019-06-26T21:37:11.674Z,97162.44
2019-06-26T21:39:43.488Z,97166.71
2019-06-26T21:42:15.489Z,97166.37
2019-06-26T21:44:47.369Z,97169.95
2019-06-26T21:47:19.279Z,97174.92
2019-06-26T21:49:51.200Z,97176.36
2019-06-26T21:52:22.973Z,97175.50
2019-06-26T21:54:55.070Z,97172.55
2019-06-26T21:57:44.657Z,97174.68
2019-06-26T22:00:35.937Z,97175.39
2019-06-26T22:03:25.432Z,97169.65
2019-06-26T22:05:59.339Z,97173.56
2019-06-26T22:08:47.501Z,97170.02
2019-06-26T22:11:21.196Z,97166.73
2019-06-26T22:13:52.989Z,97166.84
2019-06-26T22:16:26.021Z,97164.72
2019-06-26T22:18:58.208Z,97161.33
2019-06-26T22:21:30.046Z,97164.34
2019-06-26T22:24:01.821Z,97162.84
2019-06-26T22:26:33.585Z,97163.77
2019-06-26T22:29:05.431Z,97161.97
2019-06-26T22:31:37.215Z,97158.09
2019-06-26T22:34:08.993Z,97162.86
2019-06-26T22:36:50.990Z,97166.47
2019-06-26T22:39:14.251Z,97157.02
2019-06-26T22:41:46.657Z,97155.48
2019-06-26T22:44:18.434Z,97159.51
2019-06-26T22:46:50.196Z,97166.31
2019-06-26T22:49:21.979Z,97160.73
2019-06-26T22:51:53.775Z,97166.41
2019-06-26T22:54:25.534Z,97163.13
2019-06-26T22:56:57.307Z,97156.58
2019-06-26T22:59:29.155Z,97163.59
2019-06-26T23:02:00.928Z,97158.66
2019-06-26T23:04:32.709Z,97163.16
2019-06-26T23:07:04.626Z,97158.23
2019-06-26T23:09:36.428Z,97158.05
2019-06-26T23:12:08.181Z,97163.21
2019-06-26T23:14:39.962Z,97155.77
2019-06-26T23:17:11.742Z,97164.68
2019-06-26T23:19:45.106Z,97161.61
2019-06-26T23:22:16.873Z,97165.03
2019-06-26T23:24:48.672Z,97168.41
2019-06-26T23:27:20.426Z,97161.02
2019-06-26T23:29:52.242Z,97161.17
2019-06-26T23:32:24.018Z,97162.45
2019-06-26T23:34:56.665Z,97160.95
2019-06-26T23:37:28.517Z,97170.04
2019-06-26T23:40:00.311Z,97166.53
2019-06-26T23:42:32.077Z,97161.02
2019-06-26T23:45:07.625Z,97161.98
2019-06-26T23:47:39.446Z,97162.59
2019-06-26T23:50:11.337Z,97161.98
2019-06-26T23:52:43.181Z,97162.58
2019-06-26T23:55:16.526Z,97171.38
2019-06-26T23:57:59.187Z,97169.74
